createdAt,value
2022-09-05T00:01:27.639Z,17.96
2022-09-05T00:04:03.476Z,17.96
2022-09-05T00:06:52.390Z,17.81
2022-09-05T00:09:41.809Z,17.79
2022-09-05T00:12:11.889Z,17.61
2022-09-05T00:15:16.936Z,17.53
2022-09-05T00:18:56.491Z,17.46
2022-09-05T00:24:28.565Z,17.35
2022-09-05T00:24:42.059Z,17.47
2022-09-05T00:26:29.528Z,17.39
2022-09-05T00:29:04.396Z,17.49
2022-09-05T00:31:54.006Z,17.35
2022-09-05T00:34:47.919Z,17.36
2022-09-05T00:37:27.981Z,17.29
2022-09-05T00:40:17.442Z,17.21
2022-09-05T00:42:48.974Z,17.07
2022-09-05T00:45:20.729Z,17.14
2022-09-05T00:47:49.853Z,17.01
2022-09-05T00:50:23.190Z,16.97
2022-09-05T00:53:06.551Z,16.74
2022-09-05T00:55:40.824Z,16.93
2022-09-05T00:58:20.381Z,16.96
2022-09-05T01:00:53.098Z,16.97
2022-09-05T01:03:45.640Z,16.90
2022-09-05T01:06:19.159Z,16.87
2022-09-05T01:09:09.432Z,16.91
2022-09-05T01:11:54.109Z,16.83
2022-09-05T01:14:35.236Z,16.83
2022-09-05T01:17:12.409Z,16.81
2022-09-05T01:19:52.059Z,16.88
2022-09-05T01:22:40.703Z,16.92
2022-09-05T01:25:16.595Z,16.99
2022-09-05T01:29:06.493Z,17.07
2022-09-05T01:30:42.280Z,17.16
2022-09-05T01:33:18.980Z,16.99
2022-09-05T01:36:03.446Z,16.95
2022-09-05T01:38:37.481Z,17.09
2022-09-05T01:41:19.232Z,17.03
2022-09-05T01:44:11.379Z,17.14
2022-09-05T01:46:43.764Z,17.11
2022-09-05T01:49:25.002Z,17.08
2022-09-05T01:52:10.875Z,17.13
2022-09-05T01:54:45.987Z,17.10
2022-09-05T01:57:21.547Z,16.99
2022-09-05T01:59:56.160Z,16.91
2022-09-05T02:02:33.326Z,16.85
2022-09-05T02:05:13.423Z,16.69
2022-09-05T02:07:56.147Z,16.36
2022-09-05T02:10:44.395Z,16.30
2022-09-05T02:13:18.774Z,16.20
2022-09-05T02:15:59.133Z,16.32
2022-09-05T02:18:30.808Z,16.05
2022-09-05T02:21:01.044Z,16.10
2022-09-05T02:23:41.599Z,16.01
2022-09-05T02:26:14.073Z,16.08
2022-09-05T02:28:45.276Z,16.03
2022-09-05T02:31:19.793Z,15.88
2022-09-05T02:34:01.805Z,15.85
2022-09-05T02:36:35.649Z,15.80
2022-09-05T02:43:09.316Z,15.82
2022-09-05T02:45:19.431Z,15.88
2022-09-05T02:45:20.931Z,15.84
2022-09-05T02:47:47.324Z,15.97
2022-09-05T02:53:06.548Z,16.01
2022-09-05T02:57:33.266Z,15.84
2022-09-05T02:57:37.227Z,15.91
2022-09-05T02:59:13.897Z,15.85
2022-09-05T03:01:55.597Z,15.85
2022-09-05T03:04:31.022Z,15.88
2022-09-05T03:07:26.551Z,15.66
2022-09-05T03:10:17.768Z,15.76
2022-09-05T03:13:15.922Z,15.77
2022-09-05T03:16:11.469Z,15.81
2022-09-05T03:19:12.588Z,15.72
2022-09-05T03:22:09.286Z,15.75
2022-09-05T03:25:00.249Z,15.84
2022-09-05T03:28:04.809Z,15.94
2022-09-05T03:30:41.190Z,15.93
2022-09-05T03:33:33.976Z,15.87
2022-09-05T03:36:28.390Z,15.88
2022-09-05T03:39:31.695Z,15.86
2022-09-05T03:42:31.591Z,15.93
2022-09-05T03:45:15.406Z,15.92
2022-09-05T03:48:24.716Z,16.00
2022-09-05T03:57:17.061Z,15.81
2022-09-05T03:57:20.828Z,15.91
2022-09-05T03:57:38.716Z,15.71
2022-09-05T04:00:11.401Z,15.76
2022-09-05T04:08:06.416Z,15.94
2022-09-05T04:08:16.189Z,16.11
2022-09-05T04:08:42.729Z,16.14
2022-09-05T04:11:16.099Z,16.14
2022-09-05T04:13:50.613Z,16.14
2022-09-05T04:16:20.221Z,16.12
2022-09-05T04:18:51.614Z,16.12
2022-09-05T04:21:22.866Z,16.00
2022-09-05T04:24:08.952Z,15.87
2022-09-05T04:26:47.394Z,15.84
2022-09-05T04:29:20.978Z,15.84
2022-09-05T04:32:17.918Z,15.89
2022-09-05T04:34:51.270Z,15.90
2022-09-05T04:37:47.832Z,15.92
2022-09-05T04:40:33.208Z,15.90
2022-09-05T04:43:03.652Z,15.92
2022-09-05T04:45:40.875Z,15.96
2022-09-05T04:48:12.132Z,15.77
2022-09-05T04:50:46.591Z,15.70
2022-09-05T04:53:20.654Z,15.47
2022-09-05T04:55:51.160Z,15.40
2022-09-05T04:58:27.507Z,15.44
2022-09-05T05:06:03.004Z,15.45
2022-09-05T05:06:12.052Z,15.24
2022-09-05T05:07:07.688Z,15.28
2022-09-05T05:09:40.720Z,15.31
2022-09-05T05:17:54.817Z,15.27
2022-09-05T05:18:08.288Z,15.12
2022-09-05T05:18:42.414Z,15.32
2022-09-05T05:20:50.125Z,15.30
2022-09-05T05:23:19.556Z,15.29
2022-09-05T05:25:51.798Z,15.37
2022-09-05T05:28:26.903Z,15.31
2022-09-05T05:31:01.520Z,15.42
2022-09-05T05:33:33.732Z,15.44
2022-09-05T05:36:03.044Z,15.47
2022-09-05T05:38:37.792Z,15.57
2022-09-05T05:41:10.983Z,15.69
2022-09-05T05:43:45.501Z,15.82
2022-09-05T05:46:16.468Z,15.99
2022-09-05T05:48:51.765Z,16.07
2022-09-05T05:51:53.353Z,16.15
2022-09-05T05:54:28.124Z,16.18
2022-09-05T05:57:23.809Z,16.33
2022-09-05T05:59:59.105Z,16.43
2022-09-05T06:03:25.657Z,16.58
2022-09-05T06:06:16.333Z,16.81
2022-09-05T06:11:20.432Z,16.93
2022-09-05T06:14:57.751Z,17.04
2022-09-05T06:16:01.476Z,17.17
2022-09-05T06:19:25.442Z,17.37
2022-09-05T06:22:44.506Z,17.53
2022-09-05T06:25:46.013Z,17.55
2022-09-05T06:28:21.217Z,17.60
2022-09-05T06:31:22.535Z,17.74
2022-09-05T06:33:52.419Z,17.68
2022-09-05T06:36:32.615Z,17.72
2022-09-05T06:39:07.466Z,17.88
2022-09-05T06:41:42.563Z,17.92
2022-09-05T06:44:38.234Z,17.86
2022-09-05T06:47:24.389Z,17.93
2022-09-05T06:50:24.186Z,18.08
2022-09-05T06:53:25.239Z,18.22
2022-09-05T06:56:00.349Z,18.26
2022-09-05T06:59:08.994Z,18.22
2022-09-05T07:02:00.622Z,18.23
2022-09-05T07:05:18.449Z,18.30
2022-09-05T07:07:24.782Z,18.47
2022-09-05T07:09:59.407Z,18.60
2022-09-05T07:12:30.473Z,18.66
2022-09-05T07:15:08.600Z,18.48
2022-09-05T07:18:09.674Z,18.57
2022-09-05T07:21:17.135Z,18.57
2022-09-05T07:24:10.272Z,18.63
2022-09-05T07:26:52.113Z,18.57
2022-09-05T07:29:27.634Z,18.68
2022-09-05T07:31:57.426Z,18.88
2022-09-05T07:34:28.988Z,18.88
2022-09-05T07:37:14.773Z,19.09
2022-09-05T07:39:46.465Z,19.31
2022-09-05T07:42:18.192Z,19.37
2022-09-05T07:44:50.224Z,19.30
2022-09-05T07:47:22.256Z,19.30
2022-09-05T07:50:20.997Z,19.32
2022-09-05T07:57:00.668Z,19.58
2022-09-05T07:57:08.677Z,19.41
2022-09-05T07:58:21.400Z,19.66
2022-09-05T08:00:53.032Z,19.88
2022-09-05T08:03:26.618Z,20.09
2022-09-05T08:05:55.449Z,20.28
2022-09-05T08:08:25.875Z,20.26
2022-09-05T08:11:24.878Z,20.29
2022-09-05T08:13:52.563Z,20.53
2022-09-05T08:16:23.302Z,20.64
2022-09-05T08:18:57.034Z,20.57
2022-09-05T08:21:28.055Z,20.79
2022-09-05T08:24:05.528Z,20.93
2022-09-05T08:26:47.088Z,20.49
2022-09-05T08:29:22.959Z,20.58
2022-09-05T08:31:52.770Z,20.66
2022-09-05T08:34:32.779Z,20.76
2022-09-05T08:37:13.916Z,20.81
2022-09-05T08:39:49.853Z,21.00
2022-09-05T08:42:52.741Z,21.24
2022-09-05T08:46:47.737Z,21.38
2022-09-05T08:48:35.812Z,21.63
2022-09-05T08:51:14.960Z,21.65
2022-09-05T08:53:54.545Z,21.85
2022-09-05T08:56:23.355Z,21.85
2022-09-05T08:59:27.635Z,21.72
2022-09-05T09:02:00.760Z,21.68
2022-09-05T09:05:02.566Z,21.93
2022-09-05T09:07:47.285Z,21.98
2022-09-05T09:10:28.443Z,22.39
2022-09-05T09:13:08.497Z,22.52
2022-09-05T09:15:38.722Z,22.41
2022-09-05T09:18:14.810Z,22.27
2022-09-05T09:20:51.898Z,22.19
2022-09-05T09:23:38.910Z,22.47
2022-09-05T09:26:15.752Z,22.83
2022-09-05T09:28:56.882Z,23.00
2022-09-05T09:31:48.094Z,23.06
2022-09-05T09:34:38.189Z,23.19
2022-09-05T09:37:51.823Z,23.40
2022-09-05T09:41:02.661Z,23.77
2022-09-05T09:43:53.078Z,23.96
2022-09-05T09:46:28.310Z,24.13
2022-09-05T09:49:22.905Z,24.15
2022-09-05T09:52:36.470Z,24.33
2022-09-05T09:55:42.478Z,24.36
2022-09-05T09:58:29.260Z,24.55
2022-09-05T10:01:35.000Z,24.32
2022-09-05T10:10:32.867Z,24.19
2022-09-05T10:10:45.889Z,24.32
2022-09-05T10:10:46.047Z,24.42
2022-09-05T10:13:28.780Z,24.68
2022-09-05T10:16:16.480Z,24.85
2022-09-05T10:18:54.466Z,24.96
2022-09-05T10:21:32.345Z,25.28
2022-09-05T10:24:35.282Z,25.54
2022-09-05T10:27:44.524Z,25.45
2022-09-05T10:30:25.303Z,25.57
2022-09-05T10:35:08.367Z,25.74
2022-09-05T10:36:23.494Z,25.79
2022-09-05T10:39:00.925Z,25.12
2022-09-05T10:41:50.946Z,25.35
2022-09-05T10:44:25.080Z,25.66
2022-09-05T10:46:59.885Z,25.56
2022-09-05T10:49:30.161Z,25.64
2022-09-05T10:52:13.152Z,25.62
2022-09-05T10:55:14.318Z,25.40
2022-09-05T10:57:55.909Z,25.55
2022-09-05T11:02:20.428Z,25.83
2022-09-05T11:03:45.915Z,25.81
2022-09-05T11:06:16.677Z,25.82
2022-09-05T11:08:58.722Z,26.14
2022-09-05T11:11:34.666Z,26.45
2022-09-05T11:14:07.241Z,26.34
2022-09-05T11:16:51.083Z,26.39
2022-09-05T11:19:22.170Z,26.40
2022-09-05T11:22:04.066Z,26.39
2022-09-05T11:24:50.175Z,26.54
2022-09-05T11:27:29.167Z,26.29
2022-09-05T11:30:00.824Z,26.57
2022-09-05T11:36:32.346Z,26.71
2022-09-05T11:40:00.458Z,26.93
2022-09-05T11:40:07.457Z,26.99
2022-09-05T11:42:17.740Z,27.45
2022-09-05T11:45:12.078Z,27.14
2022-09-05T11:48:10.512Z,27.30
2022-09-05T11:51:00.844Z,27.21
2022-09-05T11:53:42.193Z,27.30
2022-09-05T11:56:29.993Z,27.24
2022-09-05T11:59:33.660Z,27.46
2022-09-05T12:02:23.927Z,27.48
2022-09-05T12:05:49.079Z,27.36
2022-09-05T12:07:57.397Z,27.36
2022-09-05T12:10:43.380Z,27.47
2022-09-05T12:13:26.383Z,27.71
2022-09-05T12:16:07.741Z,27.93
2022-09-05T12:18:45.928Z,27.57
2022-09-05T12:21:25.765Z,27.64
2022-09-05T12:25:16.566Z,27.73
2022-09-05T12:27:43.795Z,27.60
2022-09-05T12:29:50.023Z,27.55
2022-09-05T12:33:47.906Z,27.62
2022-09-05T12:36:10.010Z,27.94
2022-09-05T12:40:55.969Z,28.12
2022-09-05T12:41:40.752Z,28.21
2022-09-05T12:44:41.358Z,27.91
2022-09-05T12:47:19.819Z,28.12
2022-09-05T12:50:02.786Z,28.32
2022-09-05T12:52:44.113Z,28.42
2022-09-05T12:55:25.920Z,28.68
2022-09-05T13:03:03.073Z,28.96
2022-09-05T13:03:13.669Z,28.77
2022-09-05T13:03:53.336Z,28.78
2022-09-05T13:06:27.322Z,28.85
2022-09-05T13:09:02.800Z,28.87
2022-09-05T13:14:50.340Z,28.37
2022-09-05T13:15:06.146Z,28.90
2022-09-05T13:17:14.386Z,28.66
2022-09-05T13:19:51.392Z,28.52
2022-09-05T13:22:24.559Z,28.76
2022-09-05T13:25:00.872Z,28.85
2022-09-05T13:27:31.869Z,28.88
2022-09-05T13:31:40.677Z,29.00
2022-09-05T13:37:56.504Z,29.15
2022-09-05T13:38:11.510Z,29.07
2022-09-05T13:38:51.804Z,28.66
2022-09-05T13:41:28.385Z,29.17
2022-09-05T13:44:00.554Z,29.30
2022-09-05T13:46:58.220Z,29.36
2022-09-05T13:49:31.635Z,29.43
2022-09-05T13:52:09.747Z,29.45
2022-09-05T13:54:42.189Z,29.22
2022-09-05T13:57:32.441Z,29.00
2022-09-05T14:00:27.722Z,29.08
2022-09-05T14:03:38.380Z,29.34
2022-09-05T14:06:47.474Z,29.30
2022-09-05T14:09:39.799Z,29.25
2022-09-05T14:12:12.620Z,29.05
2022-09-05T14:17:54.172Z,29.09
2022-09-05T14:20:44.050Z,29.21
2022-09-05T14:23:17.706Z,29.17
2022-09-05T14:25:49.982Z,29.02
2022-09-05T14:28:27.352Z,28.97
2022-09-05T14:37:40.804Z,28.89
2022-09-05T14:37:45.288Z,28.89
2022-09-05T14:37:50.191Z,28.94
2022-09-05T14:40:29.983Z,28.99
2022-09-05T14:43:27.022Z,28.98
2022-09-05T14:46:10.235Z,28.79
2022-09-05T14:48:56.345Z,28.45
2022-09-05T14:51:30.742Z,28.53
2022-09-05T14:54:02.547Z,28.69
2022-09-05T14:59:44.893Z,28.65
2022-09-05T15:02:48.939Z,28.43
2022-09-05T15:02:57.367Z,28.59
2022-09-05T15:05:16.449Z,28.62
2022-09-05T15:07:45.534Z,28.45
2022-09-05T15:12:21.290Z,28.49
2022-09-05T15:13:25.682Z,28.75
2022-09-05T15:16:02.789Z,28.79
2022-09-05T15:18:33.580Z,28.57
2022-09-05T15:21:30.754Z,28.50
2022-09-05T15:24:12.902Z,28.54
2022-09-05T15:26:53.043Z,28.75
2022-09-05T15:29:23.629Z,28.75
2022-09-05T15:31:54.579Z,28.76
2022-09-05T15:34:38.480Z,28.84
2022-09-05T15:37:22.837Z,28.61
2022-09-05T15:40:01.255Z,28.71
2022-09-05T15:42:32.550Z,28.56
2022-09-05T15:45:10.454Z,28.58
2022-09-05T15:47:41.773Z,28.62
2022-09-05T15:50:21.799Z,28.57
2022-09-05T15:52:55.701Z,28.55
2022-09-05T15:55:26.576Z,28.35
2022-09-05T15:57:57.727Z,28.19
2022-09-05T16:00:43.649Z,28.06
2022-09-05T16:05:02.322Z,27.93
2022-09-05T16:10:36.097Z,27.91
2022-09-05T16:10:38.653Z,27.79
2022-09-05T16:12:14.308Z,27.86
2022-09-05T16:15:01.760Z,27.70
2022-09-05T16:23:12.305Z,27.87
2022-09-05T16:23:23.752Z,27.73
2022-09-05T16:23:40.598Z,27.58
2022-09-05T16:26:12.122Z,27.51
2022-09-05T16:28:47.155Z,27.46
2022-09-05T16:31:21.281Z,27.48
2022-09-05T16:33:49.501Z,27.49
2022-09-05T16:36:19.027Z,27.48
2022-09-05T16:38:50.749Z,27.47
2022-09-05T16:41:24.561Z,27.48
2022-09-05T16:43:55.868Z,27.56
2022-09-05T16:46:28.187Z,27.58
2022-09-05T16:49:00.682Z,27.60
2022-09-05T16:51:36.480Z,27.67
2022-09-05T16:54:10.954Z,27.66
2022-09-05T16:56:41.902Z,27.71
2022-09-05T16:59:12.012Z,27.62
2022-09-05T17:02:09.213Z,27.58
2022-09-05T17:05:05.001Z,27.50
2022-09-05T17:07:55.521Z,27.48
2022-09-05T17:10:26.656Z,27.34
2022-09-05T17:12:54.882Z,27.26
2022-09-05T17:15:27.606Z,27.14
2022-09-05T17:18:22.266Z,27.07
2022-09-05T17:20:51.505Z,26.97
2022-09-05T17:26:36.979Z,26.89
2022-09-05T17:29:23.729Z,26.76
2022-09-05T17:30:21.943Z,26.69
2022-09-05T17:31:57.559Z,26.56
2022-09-05T17:34:48.124Z,26.50
2022-09-05T17:37:26.379Z,26.38
2022-09-05T17:40:00.571Z,26.26
2022-09-05T17:42:37.718Z,26.17
2022-09-05T17:45:16.425Z,26.01
2022-09-05T17:47:48.285Z,25.93
2022-09-05T17:50:23.016Z,25.74
2022-09-05T17:53:26.002Z,25.69
2022-09-05T17:56:14.297Z,25.60
2022-09-05T17:59:03.865Z,25.50
2022-09-05T18:01:32.404Z,25.27
2022-09-05T18:04:16.070Z,25.22
2022-09-05T18:06:59.018Z,25.14
2022-09-05T18:10:07.616Z,24.97
2022-09-05T18:13:13.713Z,24.81
2022-09-05T18:16:02.949Z,24.62
2022-09-05T18:19:32.888Z,24.62
2022-09-05T18:21:25.156Z,24.35
2022-09-05T18:24:00.667Z,24.23
2022-09-05T18:26:29.358Z,24.10
2022-09-05T18:29:03.872Z,24.07
2022-09-05T18:32:02.693Z,23.95
2022-09-05T18:34:45.228Z,23.88
2022-09-05T18:38:00.042Z,23.80
2022-09-05T18:40:48.615Z,23.62
2022-09-05T18:43:33.552Z,23.59
2022-09-05T18:46:08.320Z,23.49
2022-09-05T18:48:44.742Z,23.47
2022-09-05T18:51:35.450Z,23.41
2022-09-05T18:54:05.478Z,23.31
2022-09-05T18:57:12.053Z,23.33
2022-09-05T18:59:30.551Z,23.26
2022-09-05T19:02:04.487Z,23.16
2022-09-05T19:04:40.817Z,23.30
2022-09-05T19:07:11.836Z,23.18
2022-09-05T19:09:56.915Z,23.34
2022-09-05T19:12:33.908Z,23.33
2022-09-05T19:15:08.415Z,23.21
2022-09-05T19:17:38.319Z,23.18
2022-09-05T19:20:32.613Z,23.29
2022-09-05T19:23:09.829Z,23.23
2022-09-05T19:25:41.729Z,23.24
2022-09-05T19:33:50.489Z,23.28
2022-09-05T19:36:58.521Z,23.25
2022-09-05T19:37:10.873Z,23.23
2022-09-05T19:37:22.506Z,23.25
2022-09-05T19:42:04.574Z,23.17
2022-09-05T19:47:35.917Z,23.19
2022-09-05T19:47:36.392Z,23.06
2022-09-05T19:48:17.928Z,23.08
2022-09-05T19:50:47.160Z,23.13
2022-09-05T19:53:16.260Z,23.16
2022-09-05T19:55:44.690Z,23.22
2022-09-05T19:58:19.843Z,23.17
2022-09-05T20:01:02.361Z,23.03
2022-09-05T20:03:38.261Z,22.96
2022-09-05T20:06:29.383Z,22.61
2022-09-05T20:09:09.587Z,22.50
2022-09-05T20:11:45.702Z,22.49
2022-09-05T20:14:19.497Z,22.52
2022-09-05T20:16:50.105Z,22.62
2022-09-05T20:19:30.598Z,22.51
2022-09-05T20:22:14.339Z,22.54
2022-09-05T20:24:49.091Z,22.43
2022-09-05T20:27:17.145Z,22.45
2022-09-05T20:29:54.789Z,22.51
2022-09-05T20:32:39.567Z,22.45
2022-09-05T20:39:26.608Z,22.48
2022-09-05T20:43:23.017Z,22.19
2022-09-05T20:43:24.765Z,22.05
2022-09-05T20:43:52.629Z,22.02
2022-09-05T20:49:00.848Z,21.97
2022-09-05T20:54:05.982Z,22.03
2022-09-05T20:54:19.245Z,22.07
2022-09-05T20:55:39.434Z,22.05
2022-09-05T20:58:09.348Z,21.97
2022-09-05T21:00:38.949Z,21.81
2022-09-05T21:03:09.102Z,21.79
2022-09-05T21:05:39.920Z,21.84
2022-09-05T21:08:24.938Z,21.72
2022-09-05T21:10:55.706Z,21.56
2022-09-05T21:13:25.871Z,21.67
2022-09-05T21:15:54.751Z,21.69
2022-09-05T21:18:29.999Z,21.66
2022-09-05T21:21:28.119Z,21.62
2022-09-05T21:24:16.858Z,21.54
2022-09-05T21:26:47.707Z,21.46
2022-09-05T21:29:17.550Z,21.39
2022-09-05T21:31:49.242Z,21.32
2022-09-05T21:34:25.268Z,21.21
2022-09-05T21:37:06.462Z,21.20
2022-09-05T21:39:38.197Z,21.08
2022-09-05T21:43:38.872Z,21.16
2022-09-05T21:47:37.389Z,21.16
2022-09-05T21:47:52.346Z,21.31
2022-09-05T21:50:31.343Z,21.15
2022-09-05T21:54:28.025Z,21.02
2022-09-05T21:59:16.153Z,20.96
2022-09-05T21:59:21.007Z,20.91
2022-09-05T22:01:48.884Z,20.93
2022-09-05T22:04:17.446Z,20.87
2022-09-05T22:06:48.360Z,20.83
2022-09-05T22:09:18.404Z,20.84
2022-09-05T22:11:51.116Z,20.91
2022-09-05T22:14:19.218Z,20.83
2022-09-05T22:16:47.604Z,20.83
2022-09-05T22:19:17.774Z,20.68
2022-09-05T22:21:45.522Z,20.72
2022-09-05T22:24:13.619Z,20.60
2022-09-05T22:27:01.521Z,20.57
2022-09-05T22:29:34.507Z,20.49
2022-09-05T22:32:02.222Z,20.39
2022-09-05T22:34:29.898Z,20.48
2022-09-05T22:36:57.812Z,20.58
2022-09-05T22:39:35.501Z,20.53
2022-09-05T22:42:10.540Z,20.44
2022-09-05T22:44:39.499Z,20.39
2022-09-05T22:47:07.302Z,20.37
2022-09-05T22:49:36.315Z,20.31
2022-09-05T22:52:05.368Z,20.34
2022-09-05T22:54:33.061Z,20.30
2022-09-05T22:57:00.724Z,20.32
2022-09-05T22:59:29.913Z,20.17
2022-09-05T23:01:57.620Z,20.15
2022-09-05T23:04:25.800Z,20.06
2022-09-05T23:06:53.526Z,20.14
2022-09-05T23:09:21.283Z,20.17
2022-09-05T23:11:48.983Z,20.28
2022-09-05T23:14:16.631Z,20.29
2022-09-05T23:16:45.729Z,20.02
2022-09-05T23:19:13.323Z,20.02
2022-09-05T23:21:40.959Z,19.98
2022-09-05T23:24:08.604Z,19.99
2022-09-05T23:26:36.200Z,19.97
2022-09-05T23:29:03.797Z,20.16
2022-09-05T23:31:31.502Z,20.20
2022-09-05T23:34:00.505Z,20.23
2022-09-05T23:36:28.227Z,20.23
2022-09-05T23:38:56.124Z,20.30
2022-09-05T23:41:23.763Z,20.31
2022-09-05T23:43:51.490Z,20.34
2022-09-05T23:46:19.139Z,20.28
2022-09-05T23:48:46.870Z,20.28
2022-09-05T23:51:15.861Z,20.22
2022-09-05T23:53:43.896Z,20.22
2022-09-05T23:56:12.274Z,20.22
2022-09-05T23:58:40.085Z,20.25
